createdAt,value
2023-06-10T00:00:35.930Z,99741.66
2023-06-10T00:01:38.614Z,99734.94
2023-06-10T00:02:41.808Z,99741.72
2023-06-10T00:03:45.974Z,99739.88
2023-06-10T00:04:49.219Z,99742.09
2023-06-10T00:05:52.090Z,99742.63
2023-06-10T00:06:55.328Z,99746.69
2023-06-10T00:07:58.612Z,99743.53
2023-06-10T00:09:02.620Z,99741.88
2023-06-10T00:10:08.955Z,99744.94
2023-06-10T00:11:11.996Z,99750.50
2023-06-10T00:12:14.596Z,99755.44
2023-06-10T00:13:18.236Z,99750.38
2023-06-10T00:14:21.001Z,99745.16
2023-06-10T00:15:23.669Z,99748.22
2023-06-10T00:16:26.777Z,99745.69
2023-06-10T00:17:30.570Z,99745.03
2023-06-10T00:18:33.235Z,99750.84
2023-06-10T00:19:36.862Z,99752.03
2023-06-10T00:20:40.673Z,99754.06
2023-06-10T00:21:43.352Z,99756.13
2023-06-10T00:22:47.372Z,99748.38
2023-06-10T00:23:50.183Z,99751.44
2023-06-10T00:24:53.399Z,99752.63
2023-06-10T00:25:56.055Z,99749.44
2023-06-10T00:26:58.649Z,99747.31
2023-06-10T00:28:01.216Z,99751.56
2023-06-10T00:29:04.227Z,99744.66
2023-06-10T00:30:08.640Z,99746.03
2023-06-10T00:31:11.434Z,99750.09
2023-06-10T00:32:14.060Z,99750.09
2023-06-10T00:33:16.712Z,99752.13
2023-06-10T00:34:19.309Z,99747.75
2023-06-10T00:35:22.191Z,99745.59
2023-06-10T00:36:24.768Z,99750.50
2023-06-10T00:37:27.474Z,99751.88
2023-06-10T00:38:30.565Z,99757.63
2023-06-10T00:39:33.169Z,99753.41
2023-06-10T00:40:41.768Z,99753.91
2023-06-10T00:41:44.493Z,99757.84
2023-06-10T00:42:47.149Z,99750.94
2023-06-10T00:43:49.766Z,99758.38
2023-06-10T00:44:53.140Z,99762.91
2023-06-10T00:45:56.330Z,99755.84
2023-06-10T00:46:59.098Z,99756.34
2023-06-10T00:48:02.868Z,99757.56
2023-06-10T00:49:05.803Z,99760.41
2023-06-10T00:50:09.012Z,99753.69
2023-06-10T00:51:12.239Z,99761.97
2023-06-10T00:52:17.541Z,99765.88
2023-06-10T00:53:20.701Z,99758.97
2023-06-10T00:54:23.741Z,99763.19
2023-06-10T00:55:28.850Z,99769.59
2023-06-10T00:56:31.874Z,99765.41
2023-06-10T00:57:35.857Z,99764.06
2023-06-10T00:58:38.797Z,99764.22
2023-06-10T00:59:43.351Z,99761.88
2023-06-10T01:00:46.833Z,99766.63
2023-06-10T01:01:49.259Z,99768.00
2023-06-10T01:02:55.241Z,99773.88
2023-06-10T01:04:00.203Z,99771.53
2023-06-10T01:05:05.492Z,99775.25
2023-06-10T01:06:39.006Z,99781.81
2023-06-10T01:08:05.998Z,99781.47
2023-06-10T01:09:18.820Z,99775.63
2023-06-10T01:10:59.557Z,99781.19
2023-06-10T01:12:18.605Z,99781.00
2023-06-10T01:13:25.382Z,99782.38
2023-06-10T01:14:29.038Z,99786.22
2023-06-10T01:15:35.656Z,99788.22
2023-06-10T01:16:38.750Z,99784.22
2023-06-10T01:18:01.252Z,99791.63
2023-06-10T01:19:04.473Z,99792.63
2023-06-10T01:20:13.365Z,99784.72
2023-06-10T01:21:26.672Z,99788.59
2023-06-10T01:22:38.917Z,99792.28
2023-06-10T01:23:41.743Z,99792.47
2023-06-10T01:24:45.162Z,99790.94
2023-06-10T01:25:55.629Z,99807.28
2023-06-10T01:27:02.087Z,99802.22
2023-06-10T01:28:11.861Z,99801.72
2023-06-10T01:29:20.944Z,99801.22
2023-06-10T01:30:31.356Z,99802.06
2023-06-10T01:31:59.002Z,99806.78
2023-06-10T01:33:03.671Z,99807.13
2023-06-10T01:34:14.376Z,99804.75
2023-06-10T01:35:18.758Z,99805.75
2023-06-10T01:36:23.838Z,99807.94
2023-06-10T01:37:27.960Z,99807.28
2023-06-10T01:38:35.309Z,99816.53
2023-06-10T01:39:39.000Z,99814.84
2023-06-10T01:40:42.852Z,99814.84
2023-06-10T01:41:45.992Z,99808.59
2023-06-10T01:42:48.867Z,99815.00
2023-06-10T01:43:51.502Z,99807.13
2023-06-10T01:44:55.043Z,99806.44
2023-06-10T01:45:57.417Z,99808.47
2023-06-10T01:47:00.135Z,99807.78
2023-06-10T01:48:02.930Z,99806.09
2023-06-10T01:49:05.597Z,99805.41
2023-06-10T01:50:08.809Z,99808.44
2023-06-10T01:51:11.475Z,99813.13
2023-06-10T01:52:14.298Z,99807.06
2023-06-10T01:53:16.995Z,99813.47
2023-06-10T01:54:19.591Z,99810.94
2023-06-10T01:55:22.174Z,99815.84
2023-06-10T01:56:24.845Z,99810.78
2023-06-10T01:57:27.489Z,99812.09
2023-06-10T01:58:30.184Z,99811.44
2023-06-10T01:59:32.755Z,99817.97
2023-06-10T02:00:35.409Z,99821.50
2023-06-10T02:01:38.056Z,99809.38
2023-06-10T02:02:40.782Z,99811.22
2023-06-10T02:03:43.619Z,99815.94
2023-06-10T02:04:46.343Z,99817.78
2023-06-10T02:05:49.045Z,99816.22
2023-06-10T02:06:52.141Z,99813.03
2023-06-10T02:07:54.768Z,99812.38
2023-06-10T02:08:57.344Z,99815.22
2023-06-10T02:09:59.933Z,99812.69
2023-06-10T02:11:02.583Z,99817.38
2023-06-10T02:12:06.243Z,99812.00
2023-06-10T02:13:09.003Z,99819.06
2023-06-10T02:14:11.704Z,99806.94
2023-06-10T02:15:14.335Z,99811.81
2023-06-10T02:16:18.565Z,99814.66
2023-06-10T02:17:21.284Z,99815.97
2023-06-10T02:18:24.049Z,99808.25
2023-06-10T02:19:28.289Z,99814.81
2023-06-10T02:20:30.927Z,99808.06
2023-06-10T02:21:33.640Z,99810.22
2023-06-10T02:22:36.258Z,99810.53
2023-06-10T02:23:38.983Z,99813.56
2023-06-10T02:24:41.580Z,99810.19
2023-06-10T02:25:44.256Z,99805.16
2023-06-10T02:26:47.810Z,99808.84
2023-06-10T02:27:50.157Z,99813.69
2023-06-10T02:28:52.765Z,99806.78
2023-06-10T02:29:55.433Z,99808.63
2023-06-10T02:30:58.634Z,99804.41
2023-06-10T02:32:01.327Z,99810.94
2023-06-10T02:33:04.070Z,99801.34
2023-06-10T02:34:06.858Z,99799.66
2023-06-10T02:35:09.936Z,99805.03
2023-06-10T02:36:17.139Z,99805.03
2023-06-10T02:37:20.146Z,99804.50
2023-06-10T02:38:22.826Z,99807.22
2023-06-10T02:39:25.432Z,99810.75
2023-06-10T02:40:28.048Z,99808.06
2023-06-10T02:41:30.770Z,99804.03
2023-06-10T02:42:33.458Z,99796.97
2023-06-10T02:43:36.115Z,99804.34
2023-06-10T02:44:39.512Z,99800.97
2023-06-10T02:45:42.443Z,99804.66
2023-06-10T02:46:45.175Z,99805.66
2023-06-10T02:47:48.017Z,99799.59
2023-06-10T02:48:53.451Z,99804.97
2023-06-10T02:49:56.070Z,99795.22
2023-06-10T02:50:58.736Z,99799.91
2023-06-10T02:52:01.384Z,99803.59
2023-06-10T02:53:03.974Z,99800.91
2023-06-10T02:54:07.019Z,99801.91
2023-06-10T02:55:09.973Z,99808.44
2023-06-10T02:56:14.192Z,99811.28
2023-06-10T02:57:17.153Z,99800.03
2023-06-10T02:58:19.921Z,99803.72
2023-06-10T02:59:22.715Z,99801.19
2023-06-10T03:00:25.427Z,99802.19
2023-06-10T03:01:28.581Z,99808.56
2023-06-10T03:02:31.259Z,99797.81
2023-06-10T03:03:35.302Z,99804.88
2023-06-10T03:04:39.190Z,99807.56
2023-06-10T03:05:41.948Z,99802.19
2023-06-10T03:06:44.697Z,99799.81
2023-06-10T03:07:49.034Z,99807.31
2023-06-10T03:08:51.756Z,99804.78
2023-06-10T03:09:54.546Z,99801.41
2023-06-10T03:10:57.150Z,99801.41
2023-06-10T03:11:59.823Z,99799.72
2023-06-10T03:13:02.617Z,99798.72
2023-06-10T03:14:05.235Z,99800.41
2023-06-10T03:15:08.648Z,99801.09
2023-06-10T03:16:11.536Z,99802.94
2023-06-10T03:17:14.269Z,99796.72
2023-06-10T03:18:17.052Z,99800.41
2023-06-10T03:19:19.693Z,99793.34
2023-06-10T03:20:23.292Z,99795.19
2023-06-10T03:21:25.682Z,99785.91
2023-06-10T03:22:28.357Z,99798.63
2023-06-10T03:23:31.336Z,99786.41
2023-06-10T03:24:33.969Z,99791.09
2023-06-10T03:25:36.552Z,99788.41
2023-06-10T03:26:39.153Z,99786.88
2023-06-10T03:27:44.117Z,99790.00
2023-06-10T03:28:46.873Z,99791.00
2023-06-10T03:29:49.452Z,99787.63
2023-06-10T03:30:53.325Z,99795.84
2023-06-10T03:31:56.070Z,99787.94
2023-06-10T03:32:58.911Z,99789.94
2023-06-10T03:34:01.560Z,99797.00
2023-06-10T03:35:04.497Z,99789.09
2023-06-10T03:36:07.555Z,99789.09
2023-06-10T03:37:18.889Z,99797.00
2023-06-10T03:38:22.072Z,99800.69
2023-06-10T03:39:25.224Z,99795.47
2023-06-10T03:40:27.888Z,99795.63
2023-06-10T03:41:30.563Z,99792.28
2023-06-10T03:42:33.237Z,99794.25
2023-06-10T03:43:35.891Z,99790.19
2023-06-10T03:44:39.717Z,99786.66
2023-06-10T03:45:42.911Z,99787.97
2023-06-10T03:46:45.582Z,99781.91
2023-06-10T03:47:49.718Z,99782.75
2023-06-10T03:48:52.548Z,99784.75
2023-06-10T03:49:55.247Z,99785.59
2023-06-10T03:50:57.900Z,99784.75
2023-06-10T03:52:00.691Z,99788.28
2023-06-10T03:53:03.374Z,99783.22
2023-06-10T03:54:06.179Z,99782.53
2023-06-10T03:55:09.804Z,99780.16
2023-06-10T03:56:12.928Z,99774.97
2023-06-10T03:57:15.515Z,99772.44
2023-06-10T03:58:19.615Z,99769.06
2023-06-10T03:59:22.265Z,99772.72
2023-06-10T04:00:24.926Z,99766.66
2023-06-10T04:01:28.302Z,99765.97
2023-06-10T04:02:31.031Z,99767.13
2023-06-10T04:03:34.803Z,99765.44
2023-06-10T04:04:39.127Z,99759.22
2023-06-10T04:05:43.261Z,99765.75
2023-06-10T04:06:46.111Z,99763.22
2023-06-10T04:07:49.938Z,99767.88
2023-06-10T04:08:53.016Z,99763.50
2023-06-10T04:09:55.725Z,99762.00
2023-06-10T04:10:58.355Z,99766.69
2023-06-10T04:12:00.929Z,99763.31
2023-06-10T04:13:04.819Z,99764.44
2023-06-10T04:14:07.486Z,99760.06
2023-06-10T04:15:10.755Z,99761.06
2023-06-10T04:16:13.338Z,99765.59
2023-06-10T04:17:16.668Z,99761.91
2023-06-10T04:18:19.457Z,99758.25
2023-06-10T04:19:22.797Z,99759.09
2023-06-10T04:20:25.382Z,99763.59
2023-06-10T04:21:28.642Z,99763.44
2023-06-10T04:22:31.251Z,99757.53
2023-06-10T04:23:33.940Z,99764.75
2023-06-10T04:24:37.238Z,99756.00
2023-06-10T04:25:39.913Z,99754.31
2023-06-10T04:26:42.652Z,99763.38
2023-06-10T04:27:45.659Z,99760.69
2023-06-10T04:28:48.393Z,99761.69
2023-06-10T04:29:50.971Z,99750.94
2023-06-10T04:30:53.552Z,99755.31
2023-06-10T04:31:56.379Z,99753.31
2023-06-10T04:32:59.499Z,99758.69
2023-06-10T04:34:02.485Z,99758.00
2023-06-10T04:35:07.182Z,99747.28
2023-06-10T04:36:10.229Z,99748.13
2023-06-10T04:37:12.893Z,99746.28
2023-06-10T04:38:16.133Z,99750.66
2023-06-10T04:39:18.744Z,99748.13
2023-06-10T04:40:21.658Z,99752.78
2023-06-10T04:41:24.587Z,99743.91
2023-06-10T04:42:27.231Z,99749.25
2023-06-10T04:43:30.996Z,99750.56
2023-06-10T04:44:33.683Z,99742.84
2023-06-10T04:45:36.291Z,99740.16
2023-06-10T04:46:39.005Z,99748.31
2023-06-10T04:47:41.999Z,99744.78
2023-06-10T04:48:48.567Z,99747.47
2023-06-10T04:49:51.224Z,99746.78
2023-06-10T04:50:54.005Z,99745.38
2023-06-10T04:51:56.593Z,99743.84
2023-06-10T04:52:59.264Z,99743.00
2023-06-10T04:54:05.398Z,99735.13
2023-06-10T04:55:09.232Z,99742.31
2023-06-10T04:56:12.031Z,99739.63
2023-06-10T04:57:14.664Z,99737.78
2023-06-10T04:58:17.339Z,99740.31
2023-06-10T04:59:19.995Z,99740.31
2023-06-10T05:00:22.899Z,99736.25
2023-06-10T05:01:25.677Z,99735.25
2023-06-10T05:02:28.322Z,99737.25
2023-06-10T05:03:31.102Z,99730.53
2023-06-10T05:04:33.934Z,99727.16
2023-06-10T05:05:36.535Z,99730.81
2023-06-10T05:06:39.122Z,99732.81
2023-06-10T05:07:41.725Z,99724.06
2023-06-10T05:08:44.485Z,99733.97
2023-06-10T05:09:47.318Z,99731.44
2023-06-10T05:10:49.960Z,99727.06
2023-06-10T05:11:52.698Z,99731.72
2023-06-10T05:12:55.269Z,99732.72
2023-06-10T05:13:57.887Z,99733.69
2023-06-10T05:15:00.704Z,99733.69
2023-06-10T05:16:04.112Z,99724.81
2023-06-10T05:17:10.330Z,99729.47
2023-06-10T05:18:14.271Z,99722.59
2023-06-10T05:19:20.045Z,99728.09
2023-06-10T05:20:22.821Z,99732.78
2023-06-10T05:21:25.550Z,99729.25
2023-06-10T05:22:29.022Z,99730.41
2023-06-10T05:23:31.770Z,99728.56
2023-06-10T05:24:34.477Z,99727.88
2023-06-10T05:25:37.658Z,99721.81
2023-06-10T05:26:40.592Z,99728.16
2023-06-10T05:27:43.807Z,99726.47
2023-06-10T05:28:46.873Z,99720.41
2023-06-10T05:29:49.568Z,99726.78
2023-06-10T05:30:52.314Z,99725.22
2023-06-10T05:31:55.316Z,99721.31
2023-06-10T05:32:58.020Z,99722.28
2023-06-10T05:34:00.689Z,99721.78
2023-06-10T05:35:05.304Z,99725.59
2023-06-10T05:36:08.242Z,99728.41
2023-06-10T05:37:11.080Z,99727.16
2023-06-10T05:38:13.881Z,99728.28
2023-06-10T05:39:16.474Z,99730.28
2023-06-10T05:40:19.121Z,99721.25
2023-06-10T05:41:22.450Z,99736.31
2023-06-10T05:42:25.030Z,99734.50
2023-06-10T05:43:27.638Z,99731.41
2023-06-10T05:44:30.259Z,99729.03
2023-06-10T05:45:32.918Z,99736.22
2023-06-10T05:46:36.026Z,99732.16
2023-06-10T05:47:38.728Z,99734.97
2023-06-10T05:48:41.366Z,99729.47
2023-06-10T05:49:43.976Z,99723.97
2023-06-10T05:50:49.749Z,99723.00
2023-06-10T05:51:54.190Z,99722.16
2023-06-10T05:52:56.884Z,99724.81
2023-06-10T05:53:59.562Z,99720.47
2023-06-10T05:55:02.208Z,99717.94
2023-06-10T05:56:04.918Z,99719.22
2023-06-10T05:57:07.661Z,99718.78
2023-06-10T05:58:10.460Z,99716.53
2023-06-10T05:59:13.112Z,99720.34
2023-06-10T06:00:16.179Z,99724.19
2023-06-10T06:01:19.014Z,99721.66
2023-06-10T06:02:21.736Z,99721.66
2023-06-10T06:03:24.638Z,99719.97
2023-06-10T06:04:27.448Z,99719.97
2023-06-10T06:05:36.245Z,99717.28
2023-06-10T06:06:42.000Z,99719.28
2023-06-10T06:07:44.595Z,99719.66
2023-06-10T06:08:47.168Z,99718.25
2023-06-10T06:09:49.752Z,99720.38
2023-06-10T06:10:52.367Z,99722.06
2023-06-10T06:11:55.087Z,99723.06
2023-06-10T06:12:57.696Z,99709.69
2023-06-10T06:14:00.434Z,99716.31
2023-06-10T06:15:03.044Z,99712.13
2023-06-10T06:16:05.718Z,99713.25
2023-06-10T06:17:09.045Z,99708.19
2023-06-10T06:18:11.622Z,99717.19
2023-06-10T06:19:14.262Z,99713.81
2023-06-10T06:20:19.961Z,99712.13
2023-06-10T06:21:22.853Z,99714.94
2023-06-10T06:22:25.467Z,99722.41
2023-06-10T06:23:28.108Z,99718.31
2023-06-10T06:24:30.840Z,99719.47
2023-06-10T06:25:33.559Z,99718.91
2023-06-10T06:26:36.226Z,99726.22
2023-06-10T06:27:38.860Z,99717.50
2023-06-10T06:28:41.569Z,99716.50
2023-06-10T06:29:44.157Z,99714.69
2023-06-10T06:30:47.237Z,99714.41
2023-06-10T06:31:49.838Z,99715.38
2023-06-10T06:32:53.358Z,99711.31
2023-06-10T06:33:55.959Z,99711.88
2023-06-10T06:34:58.548Z,99709.34
2023-06-10T06:36:03.866Z,99709.34
2023-06-10T06:37:07.084Z,99699.63
2023-06-10T06:38:09.673Z,99704.97
2023-06-10T06:39:12.269Z,99705.94
2023-06-10T06:40:15.083Z,99698.34
2023-06-10T06:41:17.712Z,99704.53
2023-06-10T06:42:20.925Z,99699.50
2023-06-10T06:43:23.581Z,99708.50
2023-06-10T06:44:26.183Z,99704.28
2023-06-10T06:45:28.788Z,99712.59
2023-06-10T06:46:31.393Z,99714.56
2023-06-10T06:47:34.065Z,99710.06
2023-06-10T06:48:37.238Z,99711.03
2023-06-10T06:49:40.092Z,99708.50
2023-06-10T06:50:43.384Z,99709.34
2023-06-10T06:51:46.038Z,99705.81
2023-06-10T06:52:48.675Z,99703.28
2023-06-10T06:53:52.814Z,99707.94
2023-06-10T06:54:55.524Z,99698.34
2023-06-10T06:55:58.129Z,99705.66
2023-06-10T06:57:00.807Z,99699.66
2023-06-10T06:58:05.639Z,99705.13
2023-06-10T06:59:08.302Z,99700.91
2023-06-10T07:00:11.395Z,99704.56
2023-06-10T07:01:13.996Z,99707.38
2023-06-10T07:02:16.871Z,99702.31
2023-06-10T07:03:19.530Z,99708.50
2023-06-10T07:04:23.653Z,99703.28
2023-06-10T07:05:28.837Z,99705.25
2023-06-10T07:06:31.477Z,99706.22
2023-06-10T07:07:34.064Z,99706.50
2023-06-10T07:08:36.714Z,99700.31
2023-06-10T07:09:40.075Z,99711.84
2023-06-10T07:10:42.664Z,99707.63
2023-06-10T07:11:45.283Z,99706.78
2023-06-10T07:12:47.870Z,99705.09
2023-06-10T07:13:50.996Z,99707.09
2023-06-10T07:14:53.679Z,99701.75
2023-06-10T07:15:56.391Z,99695.69
2023-06-10T07:16:59.020Z,99702.03
2023-06-10T07:18:01.705Z,99700.31
2023-06-10T07:19:06.256Z,99696.09
2023-06-10T07:20:09.739Z,99698.91
2023-06-10T07:21:12.321Z,99702.69
2023-06-10T07:22:15.743Z,99703.69
2023-06-10T07:23:18.306Z,99708.88
2023-06-10T07:24:21.841Z,99698.34
2023-06-10T07:25:24.497Z,99701.16
2023-06-10T07:26:27.427Z,99693.25
2023-06-10T07:27:30.024Z,99698.75
2023-06-10T07:28:32.630Z,99689.13
2023-06-10T07:29:37.272Z,99691.28
2023-06-10T07:30:39.928Z,99689.59
2023-06-10T07:31:43.371Z,99691.53
2023-06-10T07:32:46.097Z,99690.00
2023-06-10T07:33:49.156Z,99698.13
2023-06-10T07:34:52.634Z,99698.41
2023-06-10T07:35:55.379Z,99699.66
2023-06-10T07:36:58.000Z,99698.22
2023-06-10T07:38:00.609Z,99700.19
2023-06-10T07:39:03.355Z,99694.97
2023-06-10T07:40:06.824Z,99696.84
2023-06-10T07:41:09.996Z,99698.78
2023-06-10T07:42:12.693Z,99693.72
2023-06-10T07:43:15.301Z,99699.06
2023-06-10T07:44:17.969Z,99698.09
2023-06-10T07:45:20.772Z,99695.81
2023-06-10T07:46:24.702Z,99690.34
2023-06-10T07:47:27.942Z,99693.03
2023-06-10T07:48:30.564Z,99694.72
2023-06-10T07:49:33.175Z,99694.72
2023-06-10T07:50:36.048Z,99693.03
2023-06-10T07:51:38.665Z,99687.81
2023-06-10T07:52:41.399Z,99689.81
2023-06-10T07:53:44.227Z,99692.63
2023-06-10T07:54:46.864Z,99691.91
2023-06-10T07:55:49.604Z,99691.19
2023-06-10T07:56:54.442Z,99690.34
2023-06-10T07:57:57.105Z,99690.47
2023-06-10T07:58:59.707Z,99685.28
2023-06-10T08:00:04.333Z,99693.28
2023-06-10T08:01:07.166Z,99696.78
2023-06-10T08:02:09.753Z,99695.09
2023-06-10T08:03:12.743Z,99693.28
2023-06-10T08:04:15.493Z,99691.59
2023-06-10T08:05:18.534Z,99694.00
2023-06-10T08:06:21.329Z,99690.34
2023-06-10T08:07:23.926Z,99688.38
2023-06-10T08:08:26.495Z,99692.75
2023-06-10T08:09:29.154Z,99690.22
2023-06-10T08:10:32.434Z,99690.34
2023-06-10T08:11:35.128Z,99688.66
2023-06-10T08:12:38.204Z,99685.13
2023-06-10T08:13:41.614Z,99680.78
2023-06-10T08:14:44.221Z,99684.44
2023-06-10T08:15:46.876Z,99681.88
2023-06-10T08:16:49.581Z,99678.25
2023-06-10T08:17:53.080Z,99683.72
2023-06-10T08:18:56.084Z,99685.53
2023-06-10T08:19:58.895Z,99679.63
2023-06-10T08:21:01.910Z,99681.72
2023-06-10T08:22:04.657Z,99686.06
2023-06-10T08:23:07.369Z,99685.22
2023-06-10T08:24:10.841Z,99676.38
2023-06-10T08:25:13.521Z,99680.72
2023-06-10T08:26:16.322Z,99684.97
2023-06-10T08:27:18.937Z,99687.75
2023-06-10T08:28:21.554Z,99690.44
2023-06-10T08:29:24.760Z,99695.06
2023-06-10T08:30:27.446Z,99689.03
2023-06-10T08:31:30.095Z,99682.97
2023-06-10T08:32:32.777Z,99686.63
2023-06-10T08:33:35.475Z,99684.09
2023-06-10T08:34:38.375Z,99684.94
2023-06-10T08:35:41.082Z,99685.78
2023-06-10T08:36:46.331Z,99686.63
2023-06-10T08:37:49.296Z,99683.97
2023-06-10T08:38:51.892Z,99686.75
2023-06-10T08:39:54.472Z,99682.53
2023-06-10T08:41:01.906Z,99690.53
2023-06-10T08:42:25.481Z,99685.59
2023-06-10T08:43:30.754Z,99685.72
2023-06-10T08:44:34.692Z,99684.03
2023-06-10T08:45:38.486Z,99688.53
2023-06-10T08:46:46.605Z,99686.97
2023-06-10T08:47:54.986Z,99690.63
2023-06-10T08:49:04.610Z,99691.72
2023-06-10T08:50:08.862Z,99690.19
2023-06-10T08:51:13.953Z,99689.50
2023-06-10T08:52:19.221Z,99692.16
2023-06-10T08:53:22.611Z,99687.66
2023-06-10T08:54:28.974Z,99695.81
2023-06-10T08:55:37.855Z,99699.44
2023-06-10T08:56:42.074Z,99696.22
2023-06-10T08:57:46.144Z,99699.75
2023-06-10T08:58:50.042Z,99692.44
2023-06-10T08:59:54.078Z,99699.47
2023-06-10T09:00:57.007Z,99693.28
2023-06-10T09:02:00.502Z,99702.41
2023-06-10T09:03:06.627Z,99701.56
2023-06-10T09:04:09.445Z,99701.84
2023-06-10T09:05:12.729Z,99708.16
2023-06-10T09:06:15.369Z,99696.50
2023-06-10T09:07:18.666Z,99695.53
2023-06-10T09:08:21.554Z,99704.53
2023-06-10T09:09:25.113Z,99696.66
2023-06-10T09:10:28.462Z,99702.25
2023-06-10T09:11:31.071Z,99700.41
2023-06-10T09:12:33.649Z,99697.50
2023-06-10T09:13:36.239Z,99700.03
2023-06-10T09:14:38.906Z,99703.53
2023-06-10T09:15:43.441Z,99700.16
2023-06-10T09:16:48.317Z,99706.72
2023-06-10T09:17:51.051Z,99698.88
2023-06-10T09:18:56.679Z,99700.94
2023-06-10T09:19:59.456Z,99709.47
2023-06-10T09:21:02.083Z,99713.09
2023-06-10T09:22:05.000Z,99709.72
2023-06-10T09:23:08.674Z,99718.00
2023-06-10T09:24:11.100Z,99712.94
2023-06-10T09:25:15.380Z,99719.25
2023-06-10T09:26:18.139Z,99717.56
2023-06-10T09:27:20.805Z,99715.88
2023-06-10T09:28:23.439Z,99720.34
2023-06-10T09:29:26.065Z,99724.00
2023-06-10T09:30:33.021Z,99726.06
2023-06-10T09:31:40.339Z,99720.34
2023-06-10T09:32:43.476Z,99722.75
2023-06-10T09:33:47.187Z,99722.63
2023-06-10T09:34:49.958Z,99719.25
2023-06-10T09:35:52.827Z,99723.88
2023-06-10T09:36:55.891Z,99720.34
2023-06-10T09:38:01.177Z,99725.69
2023-06-10T09:39:04.483Z,99718.66
2023-06-10T09:40:09.703Z,99725.81
2023-06-10T09:41:14.811Z,99726.66
2023-06-10T09:42:20.888Z,99729.59
2023-06-10T09:43:23.969Z,99725.34
2023-06-10T09:44:27.129Z,99730.94
2023-06-10T09:45:33.355Z,99728.28
2023-06-10T09:46:36.163Z,99728.53
2023-06-10T09:47:39.060Z,99729.50
2023-06-10T09:48:45.216Z,99730.50
2023-06-10T09:49:47.791Z,99735.97
2023-06-10T09:50:50.560Z,99740.47
2023-06-10T09:51:54.757Z,99729.78
2023-06-10T09:52:58.275Z,99740.47
2023-06-10T09:54:04.953Z,99737.78
2023-06-10T09:55:10.261Z,99742.28
2023-06-10T09:56:12.887Z,99739.72
2023-06-10T09:57:16.036Z,99742.53
2023-06-10T09:58:18.678Z,99744.34
2023-06-10T09:59:32.938Z,99743.50
2023-06-10T10:00:36.136Z,99736.47
2023-06-10T10:01:38.847Z,99750.66
2023-06-10T10:02:53.430Z,99740.97
2023-06-10T10:03:56.269Z,99744.72
2023-06-10T10:05:08.589Z,99748.38
2023-06-10T10:06:11.668Z,99752.13
2023-06-10T10:07:14.864Z,99748.50
2023-06-10T10:08:17.490Z,99746.78
2023-06-10T10:09:20.237Z,99756.38
2023-06-10T10:10:23.369Z,99758.19
2023-06-10T10:11:27.694Z,99755.50
2023-06-10T10:12:31.536Z,99749.22
2023-06-10T10:13:37.673Z,99747.13
2023-06-10T10:14:41.521Z,99753.19
2023-06-10T10:15:46.338Z,99757.44
2023-06-10T10:16:51.176Z,99747.59
2023-06-10T10:18:10.999Z,99750.28
2023-06-10T10:19:29.004Z,99748.44
2023-06-10T10:20:35.375Z,99751.97
2023-06-10T10:21:46.122Z,99756.44
2023-06-10T10:22:51.495Z,99752.81
2023-06-10T10:23:55.625Z,99762.50
2023-06-10T10:25:01.416Z,99763.31
2023-06-10T10:26:10.643Z,99764.16
2023-06-10T10:27:37.326Z,99762.34
2023-06-10T10:28:46.350Z,99760.41
2023-06-10T10:29:53.638Z,99761.97
2023-06-10T10:31:03.918Z,99758.19
2023-06-10T10:32:09.136Z,99764.13
2023-06-10T10:33:19.296Z,99762.31
2023-06-10T10:34:32.814Z,99765.81
2023-06-10T10:35:36.331Z,99765.81
2023-06-10T10:36:39.933Z,99764.97
2023-06-10T10:37:42.717Z,99769.47
2023-06-10T10:38:48.164Z,99770.19
2023-06-10T10:39:52.812Z,99771.75
2023-06-10T10:40:57.674Z,99771.63
2023-06-10T10:42:00.489Z,99767.84
2023-06-10T10:43:03.998Z,99766.03
2023-06-10T10:44:09.596Z,99779.06
2023-06-10T10:45:13.114Z,99771.78
2023-06-10T10:46:16.555Z,99777.97
2023-06-10T10:47:23.504Z,99776.16
2023-06-10T10:48:26.741Z,99776.03
2023-06-10T10:49:29.567Z,99775.03
2023-06-10T10:50:32.446Z,99767.75
2023-06-10T10:51:38.757Z,99773.81
2023-06-10T10:52:56.498Z,99769.06
2023-06-10T10:54:17.480Z,99769.91
2023-06-10T10:55:20.249Z,99772.47
2023-06-10T10:56:23.332Z,99761.66
2023-06-10T10:57:26.214Z,99763.34
2023-06-10T10:58:28.904Z,99772.06
2023-06-10T11:00:01.335Z,99772.63
2023-06-10T11:01:18.859Z,99776.97
2023-06-10T11:02:40.360Z,99781.22
2023-06-10T11:03:48.905Z,99789.81
2023-06-10T11:04:51.851Z,99785.19
2023-06-10T11:05:54.529Z,99784.09
2023-06-10T11:07:07.988Z,99789.16
2023-06-10T11:08:11.457Z,99790.72
2023-06-10T11:09:33.418Z,99792.13
2023-06-10T11:10:38.149Z,99795.38
2023-06-10T11:11:52.070Z,99793.44
2023-06-10T11:12:54.956Z,99789.66
2023-06-10T11:14:38.366Z,99792.91
2023-06-10T11:15:46.503Z,99793.63
2023-06-10T11:16:50.429Z,99795.19
2023-06-10T11:18:21.337Z,99794.63
2023-06-10T11:19:48.206Z,99794.38
2023-06-10T11:20:50.749Z,99788.88
2023-06-10T11:22:01.636Z,99790.44
2023-06-10T11:23:04.571Z,99786.81
2023-06-10T11:24:16.278Z,99793.69
2023-06-10T11:25:19.018Z,99782.88
2023-06-10T11:26:34.083Z,99799.50
2023-06-10T11:27:40.844Z,99787.84
2023-06-10T11:29:03.118Z,99793.88
2023-06-10T11:30:05.646Z,99790.09
2023-06-10T11:31:08.536Z,99796.13
2023-06-10T11:32:11.551Z,99792.47
2023-06-10T11:33:19.147Z,99799.28
2023-06-10T11:34:27.328Z,99805.19
2023-06-10T11:35:31.646Z,99797.06
2023-06-10T11:36:38.182Z,99803.25
2023-06-10T11:37:40.923Z,99812.81
2023-06-10T11:38:45.225Z,99810.00
2023-06-10T11:39:48.063Z,99817.88
2023-06-10T11:40:54.418Z,99820.56
2023-06-10T11:41:57.482Z,99823.94
2023-06-10T11:43:00.482Z,99820.97
2023-06-10T11:44:11.581Z,99822.41
2023-06-10T11:45:18.618Z,99817.91
2023-06-10T11:46:21.819Z,99824.81
2023-06-10T11:47:24.494Z,99816.78
2023-06-10T11:48:29.994Z,99819.91
2023-06-10T11:49:32.633Z,99819.91
2023-06-10T11:50:35.877Z,99822.44
2023-06-10T11:51:46.705Z,99833.72
2023-06-10T11:52:49.335Z,99828.22
2023-06-10T11:53:52.267Z,99824.44
2023-06-10T11:54:57.839Z,99834.16
2023-06-10T11:56:00.551Z,99831.19
2023-06-10T11:57:04.757Z,99832.59
2023-06-10T11:58:13.568Z,99831.47
2023-06-10T11:59:16.525Z,99838.25
2023-06-10T12:00:19.901Z,99835.44
2023-06-10T12:01:30.032Z,99832.63
2023-06-10T12:02:33.085Z,99834.19
2023-06-10T12:03:40.028Z,99833.91
2023-06-10T12:04:42.715Z,99837.97
2023-06-10T12:06:05.136Z,99845.72
2023-06-10T12:07:07.753Z,99842.91
2023-06-10T12:08:14.169Z,99845.19
2023-06-10T12:09:25.068Z,99845.88
2023-06-10T12:10:29.443Z,99836.75
2023-06-10T12:11:32.547Z,99833.09
2023-06-10T12:12:38.428Z,99842.66
2023-06-10T12:13:51.491Z,99836.31
2023-06-10T12:15:00.314Z,99837.72
2023-06-10T12:16:11.367Z,99843.91
2023-06-10T12:17:14.109Z,99841.09
2023-06-10T12:18:24.647Z,99842.38
2023-06-10T12:19:28.433Z,99844.91
2023-06-10T12:20:37.817Z,99842.66
2023-06-10T12:21:40.620Z,99843.78
2023-06-10T12:22:44.895Z,99839.25
2023-06-10T12:24:04.029Z,99844.47
2023-06-10T12:25:11.053Z,99839.13
2023-06-10T12:26:16.023Z,99842.50
2023-06-10T12:27:20.486Z,99848.44
2023-06-10T12:28:27.694Z,99848.16
2023-06-10T12:29:31.496Z,99851.53
2023-06-10T12:30:34.660Z,99849.44
2023-06-10T12:31:54.475Z,99850.84
2023-06-10T12:32:58.422Z,99846.19
2023-06-10T12:34:10.544Z,99843.22
2023-06-10T12:35:15.194Z,99850.97
2023-06-10T12:36:19.538Z,99845.34
2023-06-10T12:37:23.261Z,99839.69